Time;durP1;ratioP1;P1;durP2;ratioP2;P2;SDS_P1;SDS_P2;PMS_P1;PMS_P2;Temp;Humidity;BMP_temperature;BMP_pressure;BME280_temperature;BME280_humidity;BME280_pressure;Samples;Min_cycle;Max_cycle;Signal;HPM_P1;HPM_P2
2022/09/12 00:00:44;;;;;;;18.60;11.85;;;14.70;99.90;;;;;;5075826;28;20497;-74
2022/09/12 00:03:11;;;;;;;17.40;11.38;;;14.70;99.90;;;;;;5093941;28;20540;-72
2022/09/12 00:05:42;;;;;;;20.65;11.70;;;14.70;99.90;;;;;;5111381;28;20436;-72
2022/09/12 00:08:09;;;;;;;18.00;11.25;;;14.70;99.90;;;;;;5113792;28;20441;-71
2022/09/12 00:10:38;;;;;;;18.17;7.97;;;14.70;99.90;;;;;;5110346;28;20066;-72
2022/09/12 00:13:05;;;;;;;13.85;7.50;;;14.60;99.90;;;;;;5104674;28;20064;-71
2022/09/12 00:15:37;;;;;;;13.15;8.20;;;14.60;99.90;;;;;;5103588;28;20039;-71
2022/09/12 00:18:06;;;;;;;16.15;7.13;;;14.50;99.90;;;;;;5113416;28;20088;-72
2022/09/12 00:20:34;;;;;;;14.25;8.55;;;14.50;99.90;;;;;;5112999;28;20036;-71
2022/09/12 00:23:01;;;;;;;12.85;8.77;;;14.50;99.90;;;;;;5111434;28;20046;-72
2022/09/12 00:25:29;;;;;;;16.25;10.27;;;14.50;99.90;;;;;;5114671;28;20059;-72
2022/09/12 00:27:57;;;;;;;14.30;9.70;;;14.60;99.90;;;;;;5115804;28;20563;-72
2022/09/12 00:30:24;;;;;;;15.57;10.15;;;14.60;99.90;;;;;;5116464;28;20127;-72
2022/09/12 00:32:53;;;;;;;15.25;10.02;;;14.70;99.90;;;;;;5113485;28;20039;-71
2022/09/12 00:35:22;;;;;;;15.90;10.55;;;14.70;99.90;;;;;;5096076;28;20044;-72
2022/09/12 00:37:49;;;;;;;20.45;10.40;;;14.70;99.90;;;;;;5096146;28;20097;-71
2022/09/12 00:40:16;;;;;;;14.15;8.93;;;14.80;99.90;;;;;;5095991;28;20449;-72
2022/09/12 00:42:44;;;;;;;11.73;8.40;;;14.70;99.90;;;;;;5095657;28;20068;-71
2022/09/12 00:45:23;;;;;;;15.88;9.27;;;14.70;99.90;;;;;;5095946;28;20066;-71
2022/09/12 00:47:50;;;;;;;14.35;7.53;;;14.70;99.90;;;;;;5081699;28;20096;-71
2022/09/12 00:50:18;;;;;;;10.73;6.90;;;14.60;99.90;;;;;;5097801;28;20063;-71
2022/09/12 00:52:50;;;;;;;15.30;8.30;;;14.50;99.90;;;;;;5097528;28;20063;-72
2022/09/12 00:55:21;;;;;;;17.55;8.10;;;14.50;99.90;;;;;;5113108;28;20554;-71
2022/09/12 00:57:53;;;;;;;11.55;6.45;;;14.50;99.90;;;;;;5114908;28;20123;-71
2022/09/12 01:00:23;;;;;;;12.10;6.05;;;14.50;99.90;;;;;;5096366;28;20462;-71
2022/09/12 01:02:55;;;;;;;11.82;6.75;;;14.40;99.90;;;;;;5095320;28;20102;-71
2022/09/12 01:05:23;;;;;;;10.50;6.07;;;14.50;99.90;;;;;;5095717;28;20040;-71
2022/09/12 01:07:53;;;;;;;11.80;5.97;;;14.50;99.90;;;;;;5095724;28;20101;-71
2022/09/12 01:10:21;;;;;;;10.45;6.53;;;14.50;99.90;;;;;;5095761;28;20522;-71
2022/09/12 01:12:48;;;;;;;12.57;7.05;;;14.50;99.90;;;;;;5104946;28;20045;-71
2022/09/12 01:15:16;;;;;;;13.85;6.72;;;14.50;99.90;;;;;;5115750;28;20470;-71
2022/09/12 01:17:54;;;;;;;12.48;7.07;;;14.50;99.90;;;;;;5115629;28;20035;-71
2022/09/12 01:20:45;;;;;;;12.02;6.63;;;14.50;99.90;;;;;;5115629;28;20067;-71
2022/09/12 01:23:38;;;;;;;12.25;6.53;;;14.60;99.90;;;;;;5097318;28;20072;-71
2022/09/12 01:26:26;;;;;;;11.57;7.22;;;14.60;99.90;;;;;;5115341;28;20071;-71
2022/09/12 01:29:15;;;;;;;12.05;7.22;;;14.60;99.90;;;;;;5095104;28;20446;-71
2022/09/12 01:31:53;;;;;;;13.45;7.70;;;14.60;99.90;;;;;;5096240;28;20044;-72
2022/09/12 01:34:27;;;;;;;18.10;7.93;;;14.50;99.90;;;;;;5094684;28;20075;-72
2022/09/12 01:37:05;;;;;;;14.15;8.63;;;14.40;99.90;;;;;;5094905;28;20047;-72
2022/09/12 01:39:43;;;;;;;12.88;8.35;;;14.40;99.90;;;;;;5094843;28;20120;-70
2022/09/12 01:42:18;;;;;;;16.38;8.70;;;14.30;99.90;;;;;;5095137;28;20116;-71
2022/09/12 01:44:54;;;;;;;10.95;6.78;;;14.30;99.90;;;;;;5098851;28;20114;-71
2022/09/12 01:47:31;;;;;;;13.55;7.30;;;14.30;99.90;;;;;;5115316;28;20471;-70
2022/09/12 01:50:03;;;;;;;18.80;8.80;;;14.30;99.90;;;;;;5114931;28;20040;-70
2022/09/12 01:52:35;;;;;;;13.90;9.00;;;14.20;99.90;;;;;;5114949;28;20124;-71
2022/09/12 01:55:10;;;;;;;11.05;7.43;;;14.20;99.90;;;;;;5104553;28;20048;-71
2022/09/12 01:57:43;;;;;;;15.25;8.60;;;14.10;99.90;;;;;;5094554;28;20421;-70
2022/09/12 02:00:12;;;;;;;14.95;8.77;;;14.10;99.90;;;;;;5094500;28;20480;-70
2022/09/12 02:02:51;;;;;;;13.40;8.63;;;13.90;99.90;;;;;;5076912;28;20071;-70
2022/09/12 02:05:25;;;;;;;17.67;9.63;;;13.90;99.90;;;;;;5094344;28;20040;-71
2022/09/12 02:07:55;;;;;;;13.02;8.13;;;13.80;99.90;;;;;;5102646;28;20043;-70
2022/09/12 02:10:26;;;;;;;13.88;7.53;;;13.80;99.90;;;;;;5113187;28;20035;-70
2022/09/12 02:12:56;;;;;;;13.15;7.97;;;13.70;99.90;;;;;;5113356;28;20074;-71
2022/09/12 02:15:29;;;;;;;12.52;7.82;;;13.70;99.90;;;;;;5114474;28;20101;-71
2022/09/12 02:18:00;;;;;;;14.48;7.70;;;13.70;99.90;;;;;;5096373;28;20063;-71
2022/09/12 02:20:31;;;;;;;11.75;8.50;;;13.80;99.90;;;;;;5114394;28;20066;-71
2022/09/12 02:23:01;;;;;;;13.30;7.82;;;13.80;99.90;;;;;;5114174;28;20089;-70
2022/09/12 02:25:30;;;;;;;11.48;8.07;;;13.90;99.90;;;;;;5096084;28;20088;-70
2022/09/12 02:28:01;;;;;;;13.32;7.70;;;13.90;99.90;;;;;;5113704;28;20071;-70
2022/09/12 02:30:35;;;;;;;12.13;7.28;;;13.90;99.90;;;;;;5114235;28;20039;-70
2022/09/12 02:33:08;;;;;;;14.20;8.88;;;14.00;99.90;;;;;;5114020;28;20089;-70
2022/09/12 02:35:43;;;;;;;12.02;8.27;;;14.00;99.90;;;;;;5114239;28;20097;-70
2022/09/12 02:38:20;;;;;;;18.90;9.10;;;14.00;99.90;;;;;;5114061;28;20063;-70
2022/09/12 02:40:47;;;;;;;13.23;8.82;;;14.00;99.90;;;;;;5114206;28;20529;-70
2022/09/12 02:43:14;;;;;;;19.75;10.55;;;14.00;99.90;;;;;;5097287;28;20104;-70
2022/09/12 02:45:42;;;;;;;15.73;9.82;;;14.00;99.90;;;;;;5114081;28;20494;-71
2022/09/12 02:48:14;;;;;;;14.93;8.10;;;14.00;99.90;;;;;;5113406;28;20050;-71
2022/09/12 02:50:42;;;;;;;15.65;8.32;;;14.00;99.90;;;;;;5095711;28;20130;-71
2022/09/12 02:53:11;;;;;;;13.52;8.07;;;14.00;99.90;;;;;;5113587;28;20070;-71
2022/09/12 02:55:41;;;;;;;11.45;7.60;;;14.10;99.90;;;;;;5093930;28;20435;-71
2022/09/12 02:58:12;;;;;;;12.65;7.80;;;14.00;99.90;;;;;;5093673;28;20097;-71
2022/09/12 03:00:48;;;;;;;19.38;7.65;;;14.00;99.90;;;;;;5093398;28;20044;-71
2022/09/12 03:03:26;;;;;;;;;;;13.90;99.90;;;;;;5093660;28;20127;-71
2022/09/12 03:05:57;;;;;;;16.20;9.07;;;13.90;99.90;;;;;;5093424;28;19970;-71
2022/09/12 03:08:40;;;;;;;14.35;8.75;;;13.90;99.90;;;;;;5097630;28;20059;-71
2022/09/12 03:11:35;;;;;;;11.93;8.20;;;13.90;99.90;;;;;;5078747;28;20466;-71
2022/09/12 03:14:15;;;;;;;13.25;8.68;;;13.80;99.90;;;;;;5092970;28;20131;-71
2022/09/12 03:16:52;;;;;;;16.08;9.60;;;13.80;99.90;;;;;;5076175;28;20140;-71
2022/09/12 03:19:27;;;;;;;22.45;10.27;;;13.80;99.90;;;;;;5109800;28;20044;-71
2022/09/12 03:22:03;;;;;;;18.42;9.68;;;13.80;99.90;;;;;;5105703;28;20094;-71
2022/09/12 03:24:33;;;;;;;18.95;10.15;;;13.80;99.90;;;;;;5106359;28;20033;-70
2022/09/12 03:27:07;;;;;;;18.15;9.95;;;13.80;99.90;;;;;;5113276;28;20043;-70
2022/09/12 03:29:37;;;;;;;20.83;11.07;;;13.80;99.90;;;;;;5113436;28;20066;-71
2022/09/12 03:32:04;;;;;;;21.77;11.35;;;13.90;99.90;;;;;;5112518;28;20070;-70
2022/09/12 03:34:33;;;;;;;17.83;10.73;;;13.90;99.90;;;;;;5113432;28;20114;-71
2022/09/12 03:37:00;;;;;;;21.45;11.27;;;13.90;99.90;;;;;;5113740;28;20494;-71
2022/09/12 03:39:27;;;;;;;20.73;12.70;;;13.90;99.90;;;;;;5109867;28;20059;-71
2022/09/12 03:41:55;;;;;;;22.83;12.93;;;13.80;99.90;;;;;;5093042;28;20535;-71
2022/09/12 03:44:23;;;;;;;20.73;11.73;;;13.90;99.90;;;;;;5112687;28;20134;-71
2022/09/12 03:46:50;;;;;;;20.02;9.93;;;13.90;99.90;;;;;;5113141;28;20074;-71
2022/09/12 03:49:18;;;;;;;23.05;11.73;;;13.80;99.90;;;;;;5109288;28;20051;-70
2022/09/12 03:51:46;;;;;;;20.23;13.48;;;13.90;99.90;;;;;;5103525;28;20613;-70
2022/09/12 03:54:13;;;;;;;20.33;12.27;;;13.90;99.90;;;;;;5093042;28;20048;-70
2022/09/12 03:56:41;;;;;;;20.75;12.75;;;13.90;99.90;;;;;;5092934;28;20512;-69
2022/09/12 03:59:08;;;;;;;24.70;14.73;;;13.90;99.90;;;;;;5093703;28;20435;-70
2022/09/12 04:01:36;;;;;;;18.15;12.30;;;13.90;99.90;;;;;;5097203;28;20036;-70
2022/09/12 04:04:04;;;;;;;20.38;11.63;;;13.90;99.90;;;;;;5096228;28;20109;-70
2022/09/12 04:06:31;;;;;;;16.95;10.20;;;13.90;99.90;;;;;;5110656;28;20408;-70
2022/09/12 04:09:00;;;;;;;31.45;17.77;;;14.00;99.90;;;;;;5112349;28;20071;-70
2022/09/12 04:11:27;;;;;;;22.77;14.20;;;14.00;99.90;;;;;;5116918;28;20074;-69
2022/09/12 04:13:54;;;;;;;27.33;16.92;;;14.10;99.90;;;;;;5116386;28;20044;-70
2022/09/12 04:16:22;;;;;;;27.95;17.67;;;14.10;99.90;;;;;;5116882;28;20067;-69
2022/09/12 04:18:49;;;;;;;30.45;21.67;;;14.10;99.90;;;;;;5098557;28;20487;-70
2022/09/12 04:21:18;;;;;;;30.65;20.30;;;14.10;99.90;;;;;;5116496;28;20039;-69
2022/09/12 04:23:46;;;;;;;25.27;19.25;;;14.10;99.90;;;;;;5116503;28;20043;-69
2022/09/12 04:26:16;;;;;;;24.05;17.73;;;14.10;99.90;;;;;;5116478;28;20051;-68
2022/09/12 04:28:44;;;;;;;25.27;16.73;;;14.10;99.90;;;;;;5117220;28;20440;-70
2022/09/12 04:31:14;;;;;;;20.40;15.60;;;14.10;99.90;;;;;;5116417;28;20413;-70
2022/09/12 04:33:42;;;;;;;21.08;13.90;;;14.10;99.90;;;;;;5116673;28;20048;-70
2022/09/12 04:36:10;;;;;;;19.17;14.15;;;14.10;99.90;;;;;;5116630;28;20490;-70
2022/09/12 04:38:38;;;;;;;17.08;13.23;;;14.20;99.90;;;;;;5116254;28;20444;-69
2022/09/12 04:41:12;;;;;;;27.30;12.98;;;14.20;99.90;;;;;;5117711;28;20391;-70
2022/09/12 04:43:41;;;;;;;16.15;11.82;;;14.20;99.90;;;;;;5119939;28;20039;-69
2022/09/12 04:46:10;;;;;;;17.13;11.00;;;14.20;99.90;;;;;;5118280;28;20122;-69
2022/09/12 04:48:38;;;;;;;15.63;10.90;;;14.20;99.90;;;;;;5116701;28;20067;-68
2022/09/12 04:51:09;;;;;;;16.40;10.38;;;14.20;99.90;;;;;;5116009;28;20126;-70
2022/09/12 04:53:37;;;;;;;18.65;11.60;;;14.20;99.90;;;;;;5115487;28;20127;-70
2022/09/12 04:56:06;;;;;;;18.92;13.18;;;14.10;99.90;;;;;;5116223;28;20044;-70
2022/09/12 04:58:34;;;;;;;20.00;13.00;;;14.10;99.90;;;;;;5116122;28;20043;-70
2022/09/12 05:01:06;;;;;;;18.23;13.27;;;14.10;99.90;;;;;;5116520;28;20032;-70
2022/09/12 05:03:34;;;;;;;17.45;12.45;;;14.10;99.90;;;;;;5115064;28;20040;-71
2022/09/12 05:06:02;;;;;;;20.83;13.52;;;14.10;99.90;;;;;;5115955;28;20423;-71
2022/09/12 05:08:30;;;;;;;18.33;12.70;;;14.30;99.90;;;;;;5117539;28;20078;-70
2022/09/12 05:11:02;;;;;;;12.35;9.65;;;14.30;99.90;;;;;;5116874;28;20067;-70
2022/09/12 05:13:29;;;;;;;11.32;8.75;;;14.30;99.90;;;;;;5120578;28;20077;-70
2022/09/12 05:15:57;;;;;;;14.88;9.00;;;14.30;99.90;;;;;;5121006;28;20075;-70
2022/09/12 05:18:26;;;;;;;18.52;11.75;;;14.30;99.90;;;;;;5118984;28;20055;-71
2022/09/12 05:20:54;;;;;;;15.13;10.45;;;14.30;99.90;;;;;;5121726;28;20109;-69
2022/09/12 05:23:22;;;;;;;17.17;10.27;;;14.20;99.90;;;;;;5119452;28;20051;-69
2022/09/12 05:25:51;;;;;;;16.73;12.20;;;14.30;99.90;;;;;;5117672;28;20035;-69
2022/09/12 05:28:18;;;;;;;24.67;16.42;;;14.40;99.90;;;;;;5117575;28;20040;-70
2022/09/12 05:30:46;;;;;;;12.95;9.30;;;14.60;99.90;;;;;;5098595;28;20071;-69
2022/09/12 05:33:13;;;;;;;15.32;10.95;;;14.60;99.90;;;;;;5116855;28;20104;-69
2022/09/12 05:35:42;;;;;;;14.43;8.88;;;14.80;99.90;;;;;;5117834;28;20499;-69
2022/09/12 05:38:09;;;;;;;12.57;9.02;;;14.90;99.90;;;;;;5118922;28;20085;-71
2022/09/12 05:40:36;;;;;;;15.38;9.73;;;15.00;99.90;;;;;;5118648;28;20472;-69
2022/09/12 05:43:03;;;;;;;15.65;8.43;;;15.10;99.90;;;;;;5117964;28;20059;-70
2022/09/12 05:45:31;;;;;;;13.85;10.52;;;15.10;99.90;;;;;;5116991;28;20475;-68
2022/09/12 05:47:58;;;;;;;15.13;7.97;;;15.00;99.90;;;;;;5116976;28;20035;-70
2022/09/12 05:50:25;;;;;;;9.80;7.80;;;15.00;99.90;;;;;;5116575;28;20040;-70
2022/09/12 05:52:54;;;;;;;10.80;8.30;;;15.00;99.90;;;;;;5117112;28;20468;-70
2022/09/12 05:55:21;;;;;;;11.48;8.73;;;15.10;99.90;;;;;;5116594;28;20406;-70
2022/09/12 05:57:49;;;;;;;14.65;9.18;;;15.10;99.90;;;;;;5115712;28;20046;-71
2022/09/12 06:00:18;;;;;;;12.77;8.93;;;15.10;99.90;;;;;;5097743;28;20505;-70
2022/09/12 06:02:45;;;;;;;18.23;10.05;;;15.10;99.90;;;;;;5114868;28;20452;-70
2022/09/12 06:05:12;;;;;;;10.98;8.93;;;15.10;99.90;;;;;;5115161;28;20127;-69
2022/09/12 06:07:39;;;;;;;10.63;8.20;;;15.10;99.90;;;;;;5096474;28;20124;-69
2022/09/12 06:10:10;;;;;;;14.52;9.10;;;15.30;99.90;;;;;;5114932;28;20066;-69
2022/09/12 06:12:38;;;;;;;15.32;9.15;;;15.70;99.90;;;;;;5114640;28;20437;-70
2022/09/12 06:15:06;;;;;;;13.30;8.43;;;16.10;99.90;;;;;;5114528;28;20153;-70
2022/09/12 06:17:34;;;;;;;16.02;7.85;;;16.60;99.90;;;;;;5094830;28;20127;-69
2022/09/12 06:20:02;;;;;;;14.10;8.48;;;17.00;99.90;;;;;;5095883;28;20087;-69
2022/09/12 06:22:30;;;;;;;40.25;11.63;;;17.20;99.90;;;;;;5110636;28;20051;-70
2022/09/12 06:24:57;;;;;;;25.13;10.30;;;17.30;99.90;;;;;;5116492;28;20040;-70
2022/09/12 06:27:26;;;;;;;14.88;8.90;;;17.50;99.90;;;;;;5117596;28;20075;-71
2022/09/12 06:29:53;;;;;;;14.32;9.15;;;17.50;99.90;;;;;;5114335;28;20398;-69
2022/09/12 06:32:21;;;;;;;14.20;8.60;;;17.70;99.90;;;;;;5100782;28;20399;-68
2022/09/12 06:34:48;;;;;;;14.90;8.52;;;17.80;99.90;;;;;;5114203;28;20070;-69
2022/09/12 06:37:15;;;;;;;10.15;8.30;;;17.80;99.90;;;;;;5104516;28;20120;-69
2022/09/12 06:39:42;;;;;;;15.13;9.30;;;17.90;99.90;;;;;;5111458;28;20122;-69
2022/09/12 06:42:11;;;;;;;9.70;7.70;;;18.00;99.90;;;;;;5106135;28;20039;-69
2022/09/12 06:44:40;;;;;;;17.20;11.57;;;18.10;99.90;;;;;;5113777;28;20123;-69
2022/09/12 06:47:07;;;;;;;18.23;8.80;;;18.10;99.90;;;;;;5110570;28;20046;-71
2022/09/12 06:49:34;;;;;;;13.35;7.63;;;17.90;99.90;;;;;;5113480;28;20036;-70
2022/09/12 06:52:02;;;;;;;12.98;7.30;;;17.90;99.90;;;;;;5110408;28;20126;-70
2022/09/12 06:54:29;;;;;;;9.52;6.82;;;18.10;99.90;;;;;;5111546;28;20104;-70
2022/09/12 06:56:57;;;;;;;14.52;7.85;;;18.30;99.90;;;;;;5111911;28;20040;-70
2022/09/12 06:59:24;;;;;;;12.63;7.07;;;18.40;99.90;;;;;;5111773;28;20455;-70
2022/09/12 07:01:53;;;;;;;16.83;8.60;;;18.70;99.90;;;;;;5112677;28;20036;-70
2022/09/12 07:04:20;;;;;;;17.05;10.50;;;19.00;99.90;;;;;;5112272;28;20083;-69
2022/09/12 07:06:48;;;;;;;12.68;8.00;;;19.20;99.90;;;;;;5114013;28;20043;-70
2022/09/12 07:09:16;;;;;;;17.75;9.82;;;19.20;99.90;;;;;;5114459;28;20044;-69
2022/09/12 07:11:45;;;;;;;17.67;8.02;;;19.00;99.90;;;;;;5113772;28;20051;-69
2022/09/12 07:14:40;;;;;;;15.75;8.27;;;19.00;99.90;;;;;;5113488;28;20067;-68
2022/09/12 07:17:09;;;;;;;13.98;8.25;;;19.30;99.90;;;;;;5113707;28;20047;-69
2022/09/12 07:19:36;;;;;;;20.40;11.88;;;19.60;99.90;;;;;;5113535;28;20529;-70
2022/09/12 07:22:03;;;;;;;24.73;16.42;;;19.80;99.90;;;;;;5113222;28;20059;-69
2022/09/12 07:24:31;;;;;;;13.70;8.90;;;20.10;99.90;;;;;;5113076;28;20040;-68
2022/09/12 07:26:58;;;;;;;20.85;11.18;;;20.10;99.90;;;;;;5113366;28;20044;-69
2022/09/12 07:29:25;;;;;;;25.13;13.15;;;20.20;1.00;;;;;;5113280;28;20055;-71
2022/09/12 07:31:53;;;;;;;28.35;10.55;;;20.20;1.00;;;;;;5113214;28;20035;-70
2022/09/12 07:34:22;;;;;;;13.82;8.45;;;20.00;1.00;;;;;;5114824;28;20104;-70
2022/09/12 07:36:49;;;;;;;16.42;9.05;;;20.00;1.00;;;;;;5117583;28;20039;-69
2022/09/12 07:39:16;;;;;;;12.65;7.30;;;20.20;1.00;;;;;;5117893;28;20113;-69
2022/09/12 07:41:44;;;;;;;18.13;8.15;;;20.40;1.00;;;;;;5117737;28;20074;-70
2022/09/12 07:44:11;;;;;;;25.25;8.45;;;20.60;1.00;;;;;;5116837;28;20410;-69
2022/09/12 07:46:38;;;;;;;11.30;5.72;;;20.80;99.90;;;;;;5098835;28;20100;-69
2022/09/12 07:49:06;;;;;;;13.00;4.93;;;20.80;1.00;;;;;;5117171;28;20035;-70
2022/09/12 07:51:35;;;;;;;11.40;5.95;;;20.70;99.90;;;;;;5116885;28;20035;-69
2022/09/12 07:54:02;;;;;;;8.80;4.00;;;20.80;99.90;;;;;;5116745;28;20138;-70
2022/09/12 07:56:29;;;;;;;7.80;4.07;;;20.80;1.00;;;;;;5117079;28;20429;-68
2022/09/12 07:58:57;;;;;;;9.10;4.57;;;21.00;1.00;;;;;;5099099;28;20478;-70
2022/09/12 08:01:24;;;;;;;6.85;3.85;;;21.20;1.00;;;;;;5098690;28;20502;-70
2022/09/12 08:03:55;;;;;;;12.48;6.22;;;21.30;99.90;;;;;;5116816;28;20051;-70
2022/09/12 08:06:23;;;;;;;10.25;5.35;;;21.50;99.90;;;;;;5117091;28;20047;-70
2022/09/12 08:08:53;;;;;;;9.88;5.07;;;21.80;99.90;;;;;;5117008;28;20078;-69
2022/09/12 08:11:22;;;;;;;6.82;3.38;;;21.90;1.00;;;;;;5116645;28;20042;-70
2022/09/12 08:13:51;;;;;;;5.75;3.17;;;21.50;1.00;;;;;;5116550;28;20067;-69
2022/09/12 08:16:20;;;;;;;8.75;3.92;;;21.50;1.00;;;;;;5116649;28;20048;-69
2022/09/12 08:18:48;;;;;;;9.27;3.85;;;21.30;1.00;;;;;;5116936;28;20035;-71
2022/09/12 08:21:17;;;;;;;7.18;3.78;;;21.40;1.00;;;;;;5098538;28;20067;-70
2022/09/12 08:23:45;;;;;;;6.45;3.85;;;21.70;1.00;;;;;;5116072;28;20067;-68
2022/09/12 08:26:14;;;;;;;5.32;3.95;;;21.80;1.00;;;;;;5116582;28;20074;-74
2022/09/12 08:28:45;;;;;;;9.88;4.68;;;21.70;1.00;;;;;;5116448;28;20043;-68
2022/09/12 08:31:14;;;;;;;8.38;5.68;;;21.70;1.00;;;;;;5116486;28;20491;-69
2022/09/12 08:33:41;;;;;;;5.80;3.72;;;22.00;1.00;;;;;;5116150;28;20483;-69
2022/09/12 08:36:12;;;;;;;8.90;3.80;;;22.10;99.90;;;;;;5116304;28;20122;-70
2022/09/12 08:38:41;;;;;;;5.00;3.67;;;21.90;99.90;;;;;;5117123;28;20570;-70
2022/09/12 08:41:19;;;;;;;6.88;3.72;;;21.70;1.00;;;;;;5116104;28;20470;-70
2022/09/12 08:44:22;;;;;;;6.28;3.88;;;21.70;1.00;;;;;;5115860;28;20089;-69
2022/09/12 08:47:06;;;;;;;10.85;6.22;;;21.80;99.90;;;;;;5111420;28;20067;-70
2022/09/12 08:49:37;;;;;;;6.70;4.03;;;22.10;99.90;;;;;;5116326;28;20043;-69
2022/09/12 08:52:12;;;;;;;8.70;5.18;;;21.90;1.00;;;;;;5116271;28;20118;-69
2022/09/12 08:54:40;;;;;;;6.10;4.67;;;21.80;1.00;;;;;;5116120;28;20079;-69
2022/09/12 08:57:11;;;;;;;8.23;6.70;;;21.90;99.90;;;;;;5115957;28;20276;-70
2022/09/12 08:59:41;;;;;;;9.10;5.45;;;21.60;1.00;;;;;;5097882;28;20467;-70
2022/09/12 09:02:23;;;;;;;11.75;8.35;;;21.50;1.00;;;;;;5116121;28;20067;-70
2022/09/12 09:04:52;;;;;;;10.75;5.93;;;21.20;1.00;;;;;;5115801;28;20039;-69
2022/09/12 09:07:47;;;;;;;14.73;12.23;;;21.10;1.00;;;;;;5115710;28;20043;-69
2022/09/12 09:10:24;;;;;;;12.60;8.90;;;21.20;1.00;;;;;;5116183;28;20051;-70
2022/09/12 09:12:59;;;;;;;11.77;7.07;;;21.50;99.90;;;;;;5115388;28;20039;-70
2022/09/12 09:15:39;;;;;;;8.95;5.45;;;22.00;1.00;;;;;;5115668;28;20073;-71
2022/09/12 09:18:15;;;;;;;8.57;6.03;;;22.60;1.00;;;;;;5115529;28;20047;-70
2022/09/12 09:20:48;;;;;;;12.43;8.30;;;22.90;99.90;;;;;;5115638;28;20499;-69
2022/09/12 09:23:22;;;;;;;13.18;6.00;;;22.90;99.90;;;;;;5115393;28;20451;-69
2022/09/12 09:25:55;;;;;;;12.15;7.82;;;22.60;99.90;;;;;;5115632;28;20428;-69
2022/09/12 09:28:29;;;;;;;12.27;7.90;;;22.40;99.90;;;;;;5115393;28;20047;-69
2022/09/12 09:30:57;;;;;;;12.85;8.73;;;22.30;99.90;;;;;;5115481;28;20032;-69
2022/09/12 09:33:27;;;;;;;13.90;9.52;;;22.40;99.90;;;;;;5115168;28;20487;-69
2022/09/12 09:36:05;;;;;;;9.05;6.40;;;22.80;99.90;;;;;;5115605;28;20457;-71
2022/09/12 09:38:45;;;;;;;10.77;7.10;;;22.80;99.90;;;;;;5115285;28;20080;-70
2022/09/12 09:41:28;;;;;;;9.88;6.22;;;22.70;99.90;;;;;;5115063;28;20044;-70
2022/09/12 09:43:58;;;;;;;8.07;5.93;;;22.60;99.90;;;;;;5114808;28;20100;-70
2022/09/12 09:46:27;;;;;;;8.82;6.20;;;22.60;99.90;;;;;;5115237;28;20074;-69
2022/09/12 09:48:55;;;;;;;7.85;5.63;;;22.90;99.90;;;;;;5115242;28;20054;-69
2022/09/12 09:51:26;;;;;;;7.88;6.07;;;23.00;99.90;;;;;;5114409;28;20044;-70
2022/09/12 09:53:57;;;;;;;7.30;5.05;;;23.00;99.90;;;;;;5130287;22;20051;-73
2022/09/12 09:56:29;;;;;;;7.75;5.35;;;22.90;99.90;;;;;;5080857;28;20048;-74
2022/09/12 09:59:08;;;;;;;10.35;7.35;;;22.80;99.90;;;;;;5078455;28;20123;-74
2022/09/12 10:01:36;;;;;;;9.73;8.05;;;22.60;99.90;;;;;;5077982;28;20044;-73
2022/09/12 10:04:03;;;;;;;15.63;11.90;;;22.30;99.90;;;;;;5078396;28;20048;-73
2022/09/12 10:06:33;;;;;;;16.33;10.77;;;22.20;99.90;;;;;;5078658;28;20048;-73
2022/09/12 10:09:18;;;;;;;16.85;10.60;;;22.20;99.90;;;;;;5078913;28;20515;-73
2022/09/12 10:11:45;;;;;;;10.40;8.43;;;22.30;99.90;;;;;;5079136;28;20047;-73
2022/09/12 10:14:35;;;;;;;11.93;6.82;;;22.60;99.90;;;;;;5061485;28;20055;-73
2022/09/12 10:17:22;;;;;;;10.25;5.30;;;22.70;99.90;;;;;;5060695;28;20419;-73
2022/09/12 10:19:49;;;;;;;6.82;4.80;;;22.90;99.90;;;;;;5078073;28;20127;-73
2022/09/12 10:22:19;;;;;;;12.18;8.77;;;23.00;99.90;;;;;;5059886;28;20041;-73
2022/09/12 10:24:49;;;;;;;7.00;4.82;;;23.20;99.90;;;;;;5077636;28;20052;-73
2022/09/12 10:27:20;;;;;;;7.43;5.20;;;23.60;99.90;;;;;;5076782;28;20068;-73
2022/09/12 10:29:53;;;;;;;8.05;5.15;;;23.70;99.90;;;;;;5077299;28;20048;-73
2022/09/12 10:32:29;;;;;;;8.65;6.00;;;23.60;99.90;;;;;;5091260;28;20032;-73
2022/09/12 10:35:00;;;;;;;7.13;4.97;;;23.40;99.90;;;;;;5093303;28;20060;-73
2022/09/12 10:37:32;;;;;;;8.00;4.10;;;23.20;99.90;;;;;;5093306;28;20068;-74
2022/09/12 10:40:01;;;;;;;6.82;4.32;;;23.10;99.70;;;;;;5074633;28;20045;-74
2022/09/12 10:42:45;;;;;;;10.27;5.70;;;23.00;98.90;;;;;;5073066;28;20040;-72
2022/09/12 10:45:25;;;;;;;9.63;4.70;;;23.30;98.50;;;;;;5061904;28;20068;-73
2022/09/12 10:47:54;;;;;;;4.50;2.70;;;23.50;97.20;;;;;;5061646;28;20111;-73
2022/09/12 10:50:30;;;;;;;9.35;4.47;;;23.50;95.90;;;;;;5080600;28;20067;-74
2022/09/12 10:53:14;;;;;;;;;;;23.60;96.40;;;;;;5078908;28;20048;-73
2022/09/12 10:55:51;;;;;;;10.30;3.60;;;23.80;97.40;;;;;;5080156;28;19927;-72
2022/09/12 10:58:42;;;;;;;8.02;4.53;;;24.00;97.40;;;;;;5068689;28;20076;-72
2022/09/12 11:01:22;;;;;;;8.90;4.88;;;24.00;97.10;;;;;;5086066;28;20045;-73
2022/09/12 11:04:14;;;;;;;8.88;4.00;;;23.80;95.80;;;;;;5070325;28;20159;-73
2022/09/12 11:06:54;;;;;;;9.32;4.07;;;23.90;94.90;;;;;;5080133;28;20067;-74
2022/09/12 11:09:31;;;;;;;6.65;4.90;;;23.80;94.70;;;;;;5072951;28;20053;-74
2022/09/12 11:12:06;;;;;;;9.48;4.63;;;23.90;94.50;;;;;;5082239;28;20071;-73
2022/09/12 11:14:45;;;;;;;6.78;4.78;;;23.60;94.60;;;;;;5080039;28;20051;-74
2022/09/12 11:17:25;;;;;;;8.88;5.60;;;23.60;95.00;;;;;;5075045;28;20048;-74
2022/09/12 11:20:14;;;;;;;7.95;4.63;;;23.20;95.80;;;;;;5076549;28;20086;-74
2022/09/12 11:23:18;;;;;;;12.20;7.45;;;22.90;96.40;;;;;;5079481;28;20036;-74
2022/09/12 11:25:53;;;;;;;10.15;6.35;;;23.00;96.40;;;;;;5068335;28;20060;-74
2022/09/12 11:28:35;;;;;;;14.25;4.22;;;23.20;95.60;;;;;;5079083;28;20079;-74
2022/09/12 11:31:20;;;;;;;6.45;4.47;;;23.60;94.80;;;;;;5093815;28;20063;-74
2022/09/12 11:33:51;;;;;;;9.10;5.83;;;23.80;94.40;;;;;;5069341;28;20037;-74
2022/09/12 11:36:31;;;;;;;78.68;59.13;;;24.10;92.70;;;;;;5057495;28;20091;-74
2022/09/12 11:39:05;;;;;;;10.50;5.97;;;24.50;92.50;;;;;;5058231;28;20154;-74
2022/09/12 11:41:37;;;;;;;5.97;2.67;;;24.50;90.80;;;;;;5057893;28;20499;-72
2022/09/12 11:44:15;;;;;;;7.53;3.28;;;24.60;90.20;;;;;;5057947;28;20060;-73
2022/09/12 11:46:44;;;;;;;10.50;6.15;;;24.70;91.00;;;;;;5075381;28;20037;-74
2022/09/12 11:49:24;;;;;;;7.80;4.63;;;24.90;91.60;;;;;;5071096;28;20049;-73
2022/09/12 11:51:55;;;;;;;6.55;4.60;;;24.60;91.30;;;;;;5091732;28;20147;-73
2022/09/12 11:54:28;;;;;;;9.25;7.15;;;24.10;91.80;;;;;;5098952;28;20056;-74
2022/09/12 11:57:05;;;;;;;14.07;8.48;;;23.80;93.00;;;;;;5085124;28;20044;-75
2022/09/12 11:59:40;;;;;;;9.98;4.68;;;23.60;93.50;;;;;;5083120;28;20040;-74
2022/09/12 12:02:12;;;;;;;8.07;5.82;;;23.50;93.90;;;;;;5081354;28;20449;-74
2022/09/12 12:04:59;;;;;;;7.70;4.32;;;23.40;93.10;;;;;;5074790;28;20211;-74
2022/09/12 12:07:29;;;;;;;6.18;4.50;;;23.30;93.60;;;;;;5085013;28;20071;-73
2022/09/12 12:09:56;;;;;;;10.25;4.70;;;23.40;93.40;;;;;;5063830;28;20495;-74
2022/09/12 12:12:27;;;;;;;11.50;5.75;;;23.30;92.20;;;;;;5075637;28;20491;-74
2022/09/12 12:14:56;;;;;;;9.32;5.93;;;23.40;92.20;;;;;;5062136;28;20053;-73
2022/09/12 12:17:25;;;;;;;7.65;3.92;;;23.50;92.00;;;;;;5065075;28;20079;-75
2022/09/12 12:20:03;;;;;;;4.72;2.40;;;23.50;92.00;;;;;;5059456;28;20049;-74
2022/09/12 12:22:31;;;;;;;4.88;2.45;;;23.40;90.70;;;;;;5071926;28;20041;-73
2022/09/12 12:25:24;;;;;;;8.75;4.88;;;23.50;91.30;;;;;;5073571;28;20059;-74
2022/09/12 12:27:58;;;;;;;6.80;4.15;;;23.80;90.90;;;;;;5069931;28;20094;-74
2022/09/12 12:31:03;;;;;;;7.53;4.32;;;23.70;90.10;;;;;;5078120;28;20036;-73
2022/09/12 12:33:55;;;;;;;5.03;3.72;;;23.90;90.00;;;;;;5076663;28;20052;-74
2022/09/12 12:36:49;;;;;;;5.65;2.60;;;24.30;88.90;;;;;;5050811;28;20052;-74
2022/09/12 12:39:59;;;;;;;5.72;3.05;;;24.30;87.40;;;;;;5052789;28;20044;-73
2022/09/12 12:43:03;;;;;;;6.30;3.90;;;24.50;87.00;;;;;;5072444;28;20044;-74
2022/09/12 12:45:49;;;;;;;8.40;5.45;;;24.30;87.70;;;;;;5040550;28;20048;-73
2022/09/12 12:48:19;;;;;;;8.70;6.18;;;24.50;88.70;;;;;;5040323;28;20069;-74
2022/09/12 12:50:47;;;;;;;8.63;6.40;;;24.60;86.90;;;;;;5053151;28;20048;-74
2022/09/12 12:53:23;;;;;;;7.15;4.85;;;24.60;87.60;;;;;;5077409;28;20498;-75
2022/09/12 12:55:53;;;;;;;6.95;3.53;;;24.60;85.00;;;;;;5072204;28;20528;-74
2022/09/12 12:58:31;;;;;;;5.95;3.92;;;24.60;85.20;;;;;;5077965;28;20036;-73
2022/09/12 13:01:11;;;;;;;8.68;5.32;;;24.70;85.60;;;;;;5078324;28;20127;-75
2022/09/12 13:03:43;;;;;;;6.63;4.15;;;24.70;86.10;;;;;;5078298;28;20039;-74